Time;durP1;ratioP1;P1;durP2;ratioP2;P2;SDS_P1;SDS_P2;PMS_P1;PMS_P2;Temp;Humidity;BMP_temperature;BMP_pressure;BME280_temperature;BME280_humidity;BME280_pressure;Samples;Min_cycle;Max_cycle;Signal;HPM_P1;HPM_P2
2020/12/04 00:01:06;;;;;;;42.78;17.55;;;-0.90;99.90;;;;;;5016570;28;20033;-72
2020/12/04 00:03:31;;;;;;;43.53;17.92;;;-1.00;99.90;;;;;;5018462;28;20716;-72
2020/12/04 00:05:57;;;;;;;42.95;18.25;;;-1.10;99.90;;;;;;5017385;28;20029;-72
2020/12/04 00:08:23;;;;;;;54.08;19.83;;;-1.10;99.90;;;;;;5016954;28;20045;-72
2020/12/04 00:10:48;;;;;;;46.45;18.20;;;-1.00;99.90;;;;;;5018113;28;20071;-73
2020/12/04 00:13:14;;;;;;;45.90;19.17;;;-1.00;99.90;;;;;;5017162;28;20044;-72
2020/12/04 00:15:40;;;;;;;47.75;20.20;;;-1.00;99.90;;;;;;5001143;28;20437;-72
2020/12/04 00:18:05;;;;;;;45.95;18.73;;;-1.10;99.90;;;;;;5017919;28;20064;-72
2020/12/04 00:20:31;;;;;;;53.88;20.85;;;-1.10;99.90;;;;;;5016453;28;20074;-72
2020/12/04 00:22:57;;;;;;;56.83;20.75;;;-1.20;99.90;;;;;;5018546;28;20034;-72
2020/12/04 00:25:22;;;;;;;52.40;20.33;;;-1.20;99.90;;;;;;5016057;28;20033;-72
2020/12/04 00:27:48;;;;;;;52.20;20.05;;;-1.20;99.90;;;;;;5018458;28;20037;-71
2020/12/04 00:30:14;;;;;;;51.92;21.52;;;-1.20;99.90;;;;;;5017669;28;20033;-72
2020/12/04 00:32:39;;;;;;;53.60;20.65;;;-1.10;99.90;;;;;;5016324;28;20057;-72
2020/12/04 00:35:05;;;;;;;52.92;19.63;;;-1.20;99.90;;;;;;5018156;28;20040;-73
2020/12/04 00:37:31;;;;;;;53.33;20.05;;;-1.20;99.90;;;;;;5016313;28;20037;-72
2020/12/04 00:39:56;;;;;;;52.85;21.13;;;-1.20;99.90;;;;;;5017979;28;20048;-72
2020/12/04 00:42:22;;;;;;;53.28;20.08;;;-1.30;99.90;;;;;;5017865;28;20036;-73
2020/12/04 00:44:48;;;;;;;52.42;20.50;;;-1.30;99.90;;;;;;5018487;28;20454;-73
2020/12/04 00:47:13;;;;;;;52.60;21.20;;;-1.30;99.90;;;;;;5016929;28;20063;-72
2020/12/04 00:49:39;;;;;;;52.75;20.25;;;-1.30;99.90;;;;;;5015742;28;20029;-72
2020/12/04 00:52:05;;;;;;;52.38;19.83;;;-1.30;99.90;;;;;;5017039;28;20044;-72
2020/12/04 00:54:31;;;;;;;50.60;20.13;;;-1.40;99.90;;;;;;5016729;28;20036;-72
2020/12/04 00:56:57;;;;;;;54.30;21.70;;;-1.30;99.90;;;;;;5016444;28;20061;-72
2020/12/04 00:59:31;;;;;;;48.15;19.08;;;-1.30;99.90;;;;;;5015476;28;20120;-72
2020/12/04 01:01:56;;;;;;;48.67;19.90;;;-1.30;99.90;;;;;;4999477;28;20574;-73
2020/12/04 01:04:22;;;;;;;57.63;21.38;;;-1.30;99.90;;;;;;5016893;28;20026;-73
2020/12/04 01:06:48;;;;;;;49.92;20.25;;;-1.30;99.90;;;;;;5017172;28;20581;-73
2020/12/04 01:09:14;;;;;;;55.70;20.98;;;-1.30;99.90;;;;;;5017137;28;20026;-72
2020/12/04 01:11:39;;;;;;;55.65;20.67;;;-1.40;99.90;;;;;;5016842;28;20045;-72
2020/12/04 01:14:05;;;;;;;53.97;22.15;;;-1.30;99.90;;;;;;5016107;28;20047;-72
2020/12/04 01:16:31;;;;;;;48.88;19.60;;;-1.30;99.90;;;;;;5017204;28;20035;-72
2020/12/04 01:18:56;;;;;;;50.63;19.23;;;-1.30;99.90;;;;;;5014870;28;20485;-73
2020/12/04 01:21:22;;;;;;;52.85;20.27;;;-1.30;99.90;;;;;;5017151;28;20060;-72
2020/12/04 01:23:51;;;;;;;52.08;19.92;;;-1.30;99.90;;;;;;5016883;28;20631;-73
2020/12/04 01:26:16;;;;;;;54.53;19.95;;;-1.30;99.90;;;;;;5017086;28;20061;-72
2020/12/04 01:28:42;;;;;;;49.30;20.63;;;-1.30;99.90;;;;;;5017475;28;20125;-72
2020/12/04 01:31:11;;;;;;;52.20;20.65;;;-1.30;99.90;;;;;;4998003;28;20071;-72
2020/12/04 01:33:37;;;;;;;45.88;19.05;;;-1.30;99.90;;;;;;5017021;28;20650;-72
2020/12/04 01:36:04;;;;;;;51.88;20.85;;;-1.30;99.90;;;;;;5016124;28;20132;-72
2020/12/04 01:38:29;;;;;;;54.33;20.67;;;-1.30;99.90;;;;;;5017047;28;20204;-72
2020/12/04 01:41:03;;;;;;;53.25;20.27;;;-1.30;99.90;;;;;;5015919;28;20029;-73
2020/12/04 01:43:29;;;;;;;49.38;19.10;;;-1.40;99.90;;;;;;5015264;28;20029;-73
2020/12/04 01:45:55;;;;;;;46.28;18.33;;;-1.30;99.90;;;;;;5013911;28;20756;-73
2020/12/04 01:48:21;;;;;;;55.67;20.92;;;-1.30;99.90;;;;;;5015002;28;20033;-72
2020/12/04 01:50:49;;;;;;;54.95;20.50;;;-1.30;99.90;;;;;;5016614;28;20554;-72
2020/12/04 01:53:15;;;;;;;50.80;19.92;;;-1.30;99.90;;;;;;5016742;28;20048;-73
2020/12/04 01:55:40;;;;;;;52.38;19.92;;;-1.30;99.90;;;;;;5015206;28;20386;-73
2020/12/04 01:58:07;;;;;;;55.17;21.17;;;-1.40;99.90;;;;;;5016865;28;20116;-72
2020/12/04 02:00:32;;;;;;;49.45;20.15;;;-1.30;99.90;;;;;;5015297;28;20042;-73
2020/12/04 02:02:58;;;;;;;54.72;21.67;;;-1.30;99.90;;;;;;5016080;28;20038;-73
2020/12/04 02:05:24;;;;;;;50.50;21.30;;;-1.30;99.90;;;;;;5015916;28;20042;-73
2020/12/04 02:08:01;;;;;;;48.35;19.90;;;-1.30;99.90;;;;;;5016300;28;20038;-73
2020/12/04 02:10:46;;;;;;;52.75;21.25;;;-1.30;99.90;;;;;;5015946;28;20045;-73
2020/12/04 02:13:14;;;;;;;49.95;20.05;;;-1.30;99.90;;;;;;5021467;28;20029;-73
2020/12/04 02:15:40;;;;;;;49.38;20.45;;;-1.30;99.90;;;;;;5021956;28;20041;-73
2020/12/04 02:18:06;;;;;;;47.20;20.02;;;-1.30;99.90;;;;;;5020456;28;20494;-72
2020/12/04 02:20:33;;;;;;;52.50;19.83;;;-1.30;99.90;;;;;;5019255;28;20479;-72
2020/12/04 02:22:59;;;;;;;46.72;19.55;;;-1.30;99.90;;;;;;5018682;28;20152;-72
2020/12/04 02:25:25;;;;;;;51.47;20.52;;;-1.30;99.90;;;;;;5020449;28;20763;-72
2020/12/04 02:27:51;;;;;;;49.33;19.35;;;-1.30;99.90;;;;;;5018920;28;20052;-73
2020/12/04 02:30:29;;;;;;;49.75;19.50;;;-1.30;99.90;;;;;;5019507;28;20041;-73
2020/12/04 02:32:55;;;;;;;49.72;19.20;;;-1.40;99.90;;;;;;5017937;28;20442;-72
2020/12/04 02:35:21;;;;;;;52.05;20.98;;;-1.30;99.90;;;;;;5018572;28;20041;-72
2020/12/04 02:37:46;;;;;;;47.63;20.45;;;-1.40;99.90;;;;;;5019900;28;20083;-72
2020/12/04 02:40:12;;;;;;;48.50;20.00;;;-1.40;99.90;;;;;;5019516;28;20799;-72
2020/12/04 02:42:41;;;;;;;54.45;20.40;;;-1.50;99.90;;;;;;5018547;28;20037;-71
2020/12/04 02:45:07;;;;;;;52.47;20.40;;;-1.50;99.90;;;;;;5020434;28;20788;-71
2020/12/04 02:47:32;;;;;;;53.58;20.92;;;-1.40;99.90;;;;;;5019121;28;20141;-72
2020/12/04 02:49:58;;;;;;;51.42;19.63;;;-1.50;99.90;;;;;;5019970;28;20441;-71
2020/12/04 02:52:24;;;;;;;48.70;19.63;;;-1.40;99.90;;;;;;5020317;28;20060;-72
2020/12/04 02:54:50;;;;;;;54.15;20.65;;;-1.50;99.90;;;;;;5018677;28;20510;-72
2020/12/04 02:57:16;;;;;;;49.92;19.45;;;-1.50;99.90;;;;;;5019084;28;20033;-72
2020/12/04 02:59:42;;;;;;;53.15;21.45;;;-1.50;99.90;;;;;;5018681;28;20033;-72
2020/12/04 03:02:09;;;;;;;46.38;20.27;;;-1.50;99.90;;;;;;5018422;28;20081;-72
2020/12/04 03:04:34;;;;;;;47.72;20.30;;;-1.50;99.90;;;;;;5018779;28;20798;-72
2020/12/04 03:07:00;;;;;;;46.75;20.52;;;-1.60;99.90;;;;;;5020321;28;20038;-72
2020/12/04 03:09:26;;;;;;;50.00;19.73;;;-1.60;99.90;;;;;;5019700;28;20061;-72
2020/12/04 03:11:55;;;;;;;52.05;20.50;;;-1.60;99.90;;;;;;5019574;28;20034;-72
2020/12/04 03:14:21;;;;;;;55.45;20.00;;;-1.70;99.90;;;;;;5019733;28;20045;-71
2020/12/04 03:16:47;;;;;;;53.42;21.65;;;-1.70;99.90;;;;;;5018653;28;20868;-71
2020/12/04 03:19:13;;;;;;;54.00;21.63;;;-1.80;99.90;;;;;;5019557;28;20076;-71
2020/12/04 03:21:38;;;;;;;55.30;21.15;;;-1.80;99.90;;;;;;5020139;28;20429;-71
2020/12/04 03:24:04;;;;;;;57.90;22.45;;;-1.80;99.90;;;;;;5016908;28;20492;-71
2020/12/04 03:26:30;;;;;;;50.45;20.42;;;-1.80;99.90;;;;;;5019982;28;20040;-71
2020/12/04 03:28:55;;;;;;;51.08;20.50;;;-1.90;99.90;;;;;;5019494;28;20802;-71
2020/12/04 03:31:21;;;;;;;56.65;22.65;;;-1.90;99.90;;;;;;5001453;28;20691;-72
2020/12/04 03:33:47;;;;;;;60.25;24.15;;;-1.90;99.90;;;;;;5001642;28;20144;-72
2020/12/04 03:36:12;;;;;;;59.85;22.60;;;-1.80;99.90;;;;;;5015248;28;20595;-72
2020/12/04 03:38:38;;;;;;;59.35;23.38;;;-1.80;99.90;;;;;;5013740;28;20038;-72
2020/12/04 03:41:04;;;;;;;58.13;23.00;;;-1.80;99.90;;;;;;5018801;28;20072;-72
2020/12/04 03:43:29;;;;;;;59.17;23.23;;;-1.80;99.90;;;;;;5018338;28;20041;-71
2020/12/04 03:45:55;;;;;;;57.45;23.95;;;-1.80;99.90;;;;;;5016632;28;20033;-71
2020/12/04 03:48:21;;;;;;;59.67;24.10;;;-1.80;99.90;;;;;;5019608;28;20044;-72
2020/12/04 03:50:46;;;;;;;54.53;23.02;;;-1.80;99.90;;;;;;5017894;28;20067;-72
2020/12/04 03:53:12;;;;;;;62.30;24.58;;;-1.80;99.90;;;;;;5019021;28;20033;-71
2020/12/04 03:55:38;;;;;;;56.42;23.73;;;-1.80;99.90;;;;;;5019713;28;20841;-72
2020/12/04 03:58:05;;;;;;;64.03;24.85;;;-1.80;99.90;;;;;;5017458;28;20815;-72
2020/12/04 04:00:30;;;;;;;61.88;25.33;;;-1.80;99.90;;;;;;5017434;28;20034;-71
2020/12/04 04:02:56;;;;;;;56.53;23.52;;;-1.70;99.90;;;;;;5017721;28;20064;-71
2020/12/04 04:05:22;;;;;;;58.30;23.10;;;-1.70;99.90;;;;;;5018533;28;20410;-71
2020/12/04 04:07:50;;;;;;;59.20;24.48;;;-1.70;99.90;;;;;;5000307;28;20040;-71
2020/12/04 04:10:15;;;;;;;61.00;24.83;;;-1.70;99.90;;;;;;5018191;28;20585;-71
2020/12/04 04:12:41;;;;;;;61.88;24.05;;;-1.80;99.90;;;;;;5019249;28;20138;-71
2020/12/04 04:15:07;;;;;;;56.65;23.40;;;-1.80;99.90;;;;;;5018414;28;20033;-71
2020/12/04 04:17:33;;;;;;;59.92;24.23;;;-1.80;99.90;;;;;;5000424;28;20714;-71
2020/12/04 04:19:58;;;;;;;56.60;23.33;;;-1.80;99.90;;;;;;5018091;28;20497;-71
2020/12/04 04:22:24;;;;;;;64.18;26.23;;;-1.80;99.90;;;;;;5017527;28;20112;-71
2020/12/04 04:24:50;;;;;;;61.20;24.02;;;-1.80;99.90;;;;;;5018185;28;20100;-71
2020/12/04 04:27:15;;;;;;;59.95;24.33;;;-1.80;99.90;;;;;;5018620;28;20951;-71
2020/12/04 04:29:41;;;;;;;58.65;24.67;;;-1.80;99.90;;;;;;5017909;28;20923;-71
2020/12/04 04:32:07;;;;;;;58.55;24.17;;;-1.80;99.90;;;;;;5018642;28;20703;-72
2020/12/04 04:34:32;;;;;;;53.22;22.25;;;-1.80;99.90;;;;;;5015662;28;20052;-71
2020/12/04 04:36:58;;;;;;;59.50;24.25;;;-1.90;99.90;;;;;;5016418;28;20552;-72
2020/12/04 04:39:24;;;;;;;60.95;24.35;;;-1.90;99.90;;;;;;5018600;28;20140;-71
2020/12/04 04:41:57;;;;;;;64.53;25.23;;;-1.90;99.90;;;;;;5018767;28;20093;-72
2020/12/04 04:44:23;;;;;;;63.15;24.98;;;-1.90;99.90;;;;;;5018159;28;20113;-71
2020/12/04 04:47:02;;;;;;;61.70;24.58;;;-1.90;99.90;;;;;;5018161;28;20502;-71
2020/12/04 04:49:33;;;;;;;63.47;24.83;;;-1.90;99.90;;;;;;5017506;28;20035;-71
2020/12/04 04:51:59;;;;;;;62.33;25.52;;;-2.00;99.90;;;;;;5015065;28;20029;-72
2020/12/04 04:54:25;;;;;;;55.42;24.35;;;-2.00;99.90;;;;;;5018252;28;20781;-72
2020/12/04 04:56:52;;;;;;;65.28;25.40;;;-1.90;99.90;;;;;;5017769;28;20476;-72
2020/12/04 04:59:22;;;;;;;58.58;24.65;;;-1.90;99.90;;;;;;5016949;28;20091;-72
2020/12/04 05:01:49;;;;;;;57.22;24.48;;;-1.90;99.90;;;;;;5018300;28;20554;-71
2020/12/04 05:04:16;;;;;;;64.32;26.15;;;-1.90;99.90;;;;;;5017799;28;20494;-72
2020/12/04 05:06:42;;;;;;;64.03;24.50;;;-1.90;99.90;;;;;;5017083;28;20037;-71
2020/12/04 05:09:14;;;;;;;62.70;25.55;;;-1.90;99.90;;;;;;5017643;28;20029;-70
2020/12/04 05:11:57;;;;;;;58.65;24.30;;;-1.90;99.90;;;;;;5017656;28;20083;-70
2020/12/04 05:14:24;;;;;;;59.20;24.35;;;-1.80;99.90;;;;;;5015900;28;20554;-70
2020/12/04 05:16:55;;;;;;;64.43;25.95;;;-1.80;99.90;;;;;;5017151;28;20041;-69
2020/12/04 05:19:32;;;;;;;63.63;26.05;;;-1.80;99.90;;;;;;5016463;28;20433;-69
2020/12/04 05:22:14;;;;;;;62.00;25.20;;;-1.80;99.90;;;;;;5017333;28;20026;-69
2020/12/04 05:24:41;;;;;;;57.85;24.17;;;-1.70;99.90;;;;;;5017633;28;20084;-69
2020/12/04 05:27:27;;;;;;;58.28;24.92;;;-1.80;99.90;;;;;;5017322;28;20041;-69
2020/12/04 05:29:53;;;;;;;;;;;-1.70;99.90;;;;;;5016091;28;20041;-69
2020/12/04 05:32:19;;;;;;;58.70;23.58;;;-1.70;99.90;;;;;;5014232;28;19947;-71
2020/12/04 05:34:45;;;;;;;54.67;22.88;;;-1.60;99.90;;;;;;5017021;28;20866;-69
2020/12/04 05:37:11;;;;;;;68.05;24.67;;;-1.60;99.90;;;;;;5009223;28;20520;-70
2020/12/04 05:39:48;;;;;;;57.00;24.67;;;-1.60;99.90;;;;;;5009691;28;20080;-70
2020/12/04 05:42:35;;;;;;;58.25;24.10;;;-1.60;99.90;;;;;;5008909;28;20037;-70
2020/12/04 05:45:02;;;;;;;63.67;23.60;;;-1.60;99.90;;;;;;5016135;28;20092;-70
2020/12/04 05:47:35;;;;;;;60.47;24.40;;;-1.60;99.90;;;;;;5019088;28;20048;-70
2020/12/04 05:50:01;;;;;;;56.25;23.35;;;-1.60;99.90;;;;;;5020939;28;20833;-70
2020/12/04 05:52:26;;;;;;;56.40;23.38;;;-1.60;99.90;;;;;;5021205;28;20037;-70
2020/12/04 05:54:52;;;;;;;60.78;24.73;;;-1.60;99.90;;;;;;5020467;28;20657;-70
2020/12/04 05:57:21;;;;;;;55.78;23.48;;;-1.50;99.90;;;;;;5020829;28;20026;-70
2020/12/04 05:59:48;;;;;;;58.28;24.60;;;-1.50;99.90;;;;;;5019055;28;20034;-72
2020/12/04 06:02:15;;;;;;;59.55;24.48;;;-1.50;99.90;;;;;;5013127;28;20502;-72
2020/12/04 06:04:42;;;;;;;57.88;24.52;;;-1.40;99.90;;;;;;5011832;28;20040;-72
2020/12/04 06:07:12;;;;;;;55.95;22.60;;;-1.40;99.90;;;;;;5019160;28;20051;-67
2020/12/04 06:09:40;;;;;;;60.72;23.80;;;-1.30;99.90;;;;;;5019454;28;20043;-72
2020/12/04 06:12:11;;;;;;;51.78;23.38;;;-1.30;99.90;;;;;;5020429;28;20049;-71
2020/12/04 06:14:37;;;;;;;59.47;24.38;;;-1.30;99.90;;;;;;5015943;28;20045;-71
2020/12/04 06:17:03;;;;;;;51.55;22.83;;;-1.20;99.90;;;;;;5016312;28;20033;-71
2020/12/04 06:19:30;;;;;;;57.25;24.58;;;-1.10;99.90;;;;;;5014707;28;20036;-72
2020/12/04 06:22:09;;;;;;;54.45;24.48;;;-1.10;99.90;;;;;;5019961;28;20040;-71
2020/12/04 06:25:01;;;;;;;54.53;22.60;;;-1.00;99.90;;;;;;5020261;28;20029;-71
2020/12/04 06:27:47;;;;;;;57.13;23.52;;;-0.90;99.90;;;;;;5020217;28;20118;-72
2020/12/04 06:30:16;;;;;;;54.40;23.15;;;-0.90;99.90;;;;;;5015124;28;20036;-71
2020/12/04 06:32:49;;;;;;;53.80;22.90;;;-0.80;99.90;;;;;;5017606;28;20041;-72
2020/12/04 06:35:36;;;;;;;54.30;23.25;;;-0.90;99.90;;;;;;5008901;28;20041;-71
2020/12/04 06:38:02;;;;;;;52.08;22.48;;;-0.90;99.90;;;;;;5019196;28;20033;-72
2020/12/04 06:40:31;;;;;;;60.85;24.10;;;-0.90;99.90;;;;;;5020392;28;20367;-72
2020/12/04 06:43:01;;;;;;;50.80;21.90;;;-0.90;99.90;;;;;;5017516;28;20069;-72
2020/12/04 06:45:47;;;;;;;54.70;23.77;;;-0.90;99.90;;;;;;5020450;28;20037;-71
2020/12/04 06:48:13;;;;;;;;;;;-0.80;99.90;;;;;;5015978;28;20038;-71
2020/12/04 06:50:47;;;;;;;50.97;22.00;;;-0.80;99.90;;;;;;5015798;28;19913;-71
2020/12/04 06:53:15;;;;;;;52.30;23.10;;;-0.80;99.90;;;;;;5016181;28;20517;-69
2020/12/04 06:55:41;;;;;;;57.53;25.38;;;-0.70;99.90;;;;;;5015891;28;20166;-74
2020/12/04 06:58:08;;;;;;;65.43;27.63;;;-0.80;99.90;;;;;;5018611;28;20052;-70
2020/12/04 07:00:34;;;;;;;49.63;21.55;;;-0.70;99.90;;;;;;5017648;28;20067;-72
2020/12/04 07:03:02;;;;;;;53.97;24.13;;;-0.70;99.90;;;;;;5017669;28;20034;-72
2020/12/04 07:05:29;;;;;;;54.90;22.13;;;-0.60;99.90;;;;;;5018065;28;20124;-72
2020/12/04 07:08:05;;;;;;;52.90;22.70;;;-0.60;99.90;;;;;;5017687;28;20072;-72
2020/12/04 07:10:31;;;;;;;51.13;22.27;;;-0.60;99.90;;;;;;4998961;28;20041;-72
2020/12/04 07:13:01;;;;;;;47.35;21.40;;;-0.60;99.90;;;;;;5034153;28;20072;-72
2020/12/04 07:15:28;;;;;;;51.97;23.25;;;-0.50;99.90;;;;;;5039185;28;20055;-72
2020/12/04 07:17:55;;;;;;;46.25;21.63;;;-0.50;99.90;;;;;;5038210;28;20867;-72
2020/12/04 07:20:21;;;;;;;48.42;21.88;;;-0.50;99.90;;;;;;5030563;28;20032;-72
2020/12/04 07:22:47;;;;;;;47.33;20.73;;;-0.40;99.90;;;;;;5038866;28;20102;-73
2020/12/04 07:25:13;;;;;;;47.70;21.90;;;-0.40;99.90;;;;;;5032045;28;20044;-72
2020/12/04 07:27:39;;;;;;;46.90;20.92;;;-0.30;99.90;;;;;;5039664;28;20040;-72
2020/12/04 07:30:17;;;;;;;48.45;21.15;;;-0.20;99.90;;;;;;5027458;28;20107;-72
2020/12/04 07:32:53;;;;;;;44.67;19.70;;;-0.20;99.90;;;;;;5019909;28;20108;-72
2020/12/04 07:35:20;;;;;;;51.65;21.58;;;-0.10;99.90;;;;;;5032591;28;20141;-73
2020/12/04 07:37:46;;;;;;;46.20;20.58;;;-0.10;99.90;;;;;;5039114;28;20045;-71
2020/12/04 07:40:13;;;;;;;46.50;22.58;;;-0.10;99.90;;;;;;5039184;28;20033;-68
2020/12/04 07:42:39;;;;;;;45.42;20.65;;;-0.10;99.90;;;;;;5031216;28;20053;-75
2020/12/04 07:45:05;;;;;;;52.15;22.20;;;-0.20;99.90;;;;;;5028980;28;20069;-70
2020/12/04 07:47:31;;;;;;;45.00;21.00;;;-0.10;99.90;;;;;;5039116;28;20041;-72
2020/12/04 07:50:02;;;;;;;46.60;21.25;;;-0.10;99.90;;;;;;5030940;28;20044;-72
2020/12/04 07:52:35;;;;;;;44.92;20.95;;;0.00;99.90;;;;;;5029567;28;20032;-73
2020/12/04 07:55:03;;;;;;;43.17;20.08;;;0.10;99.90;;;;;;5038045;28;20137;-73
2020/12/04 07:57:36;;;;;;;45.15;20.70;;;0.10;99.90;;;;;;5031036;28;20132;-73
2020/12/04 08:00:04;;;;;;;46.90;19.80;;;0.20;99.90;;;;;;5037755;28;20028;-73
2020/12/04 08:02:36;;;;;;;42.90;19.55;;;0.30;99.90;;;;;;5022856;28;20052;-72
2020/12/04 08:05:02;;;;;;;44.05;20.23;;;0.30;99.90;;;;;;5029336;28;20028;-72
2020/12/04 08:07:33;;;;;;;44.30;19.88;;;0.30;99.90;;;;;;5030663;28;20077;-72
2020/12/04 08:09:59;;;;;;;46.30;20.10;;;0.30;99.90;;;;;;5021302;28;20037;-72
2020/12/04 08:12:30;;;;;;;46.97;20.65;;;0.40;99.90;;;;;;5037358;28;20144;-72
2020/12/04 08:14:57;;;;;;;41.33;19.30;;;0.40;99.90;;;;;;5028667;28;20037;-72
2020/12/04 08:17:28;;;;;;;45.47;20.13;;;0.40;99.90;;;;;;5036730;28;20037;-73
2020/12/04 08:19:54;;;;;;;49.90;21.00;;;0.50;99.90;;;;;;5037785;28;20792;-72
2020/12/04 08:22:31;;;;;;;42.40;19.30;;;0.50;99.90;;;;;;5033339;28;20172;-72
2020/12/04 08:25:03;;;;;;;45.22;21.40;;;0.60;99.90;;;;;;5018788;28;20033;-72
2020/12/04 08:27:31;;;;;;;50.88;21.13;;;0.60;99.90;;;;;;5024525;28;20035;-72
2020/12/04 08:30:15;;;;;;;52.88;22.55;;;0.70;99.90;;;;;;5036719;28;20036;-72
2020/12/04 08:32:42;;;;;;;43.58;19.80;;;0.80;99.90;;;;;;5037286;28;20935;-73
2020/12/04 08:35:22;;;;;;;46.00;21.15;;;0.80;99.90;;;;;;5037858;28;20037;-73
2020/12/04 08:37:51;;;;;;;40.05;18.67;;;0.90;99.90;;;;;;5037997;28;20532;-72
2020/12/04 08:40:29;;;;;;;43.25;18.63;;;1.00;99.90;;;;;;5033034;28;20160;-71
2020/12/04 08:43:11;;;;;;;37.20;17.23;;;1.00;99.90;;;;;;5035846;28;20136;-72
2020/12/04 08:45:38;;;;;;;40.03;17.92;;;1.20;99.90;;;;;;5037969;28;20111;-73
2020/12/04 08:48:12;;;;;;;36.78;17.33;;;1.20;99.90;;;;;;5034978;28;20037;-72
2020/12/04 08:50:41;;;;;;;40.55;18.73;;;1.30;99.90;;;;;;5032886;28;20042;-72
2020/12/04 08:53:11;;;;;;;40.47;18.58;;;1.30;99.90;;;;;;5029829;28;20131;-72
2020/12/04 08:55:37;;;;;;;37.15;17.63;;;1.40;99.90;;;;;;5029828;28;20043;-77
2020/12/04 08:58:03;;;;;;;38.08;17.80;;;1.50;99.90;;;;;;5036881;28;20060;-72
2020/12/04 09:00:33;;;;;;;36.90;17.02;;;1.50;99.90;;;;;;5029524;28;20044;-71
2020/12/04 09:03:00;;;;;;;34.92;17.83;;;1.60;99.90;;;;;;5038036;28;20033;-73
2020/12/04 09:05:26;;;;;;;32.72;16.08;;;1.70;99.90;;;;;;5030093;28;20030;-72
2020/12/04 09:07:52;;;;;;;35.67;18.05;;;1.80;99.90;;;;;;5032960;28;20055;-72
2020/12/04 09:10:19;;;;;;;36.80;17.15;;;1.80;99.90;;;;;;5025304;28;20037;-72
2020/12/04 09:12:47;;;;;;;35.47;16.67;;;1.80;99.90;;;;;;5026362;28;20444;-72
2020/12/04 09:15:16;;;;;;;39.58;17.83;;;1.80;99.90;;;;;;5018645;28;20155;-72
2020/12/04 09:17:42;;;;;;;38.20;17.88;;;2.00;99.90;;;;;;5033546;28;20095;-72
2020/12/04 09:20:10;;;;;;;34.67;17.35;;;2.00;99.90;;;;;;5037242;28;20029;-72
2020/12/04 09:22:37;;;;;;;32.92;16.25;;;2.00;99.90;;;;;;5041038;28;20116;-72
2020/12/04 09:25:05;;;;;;;37.85;17.85;;;2.00;99.90;;;;;;5033777;28;20030;-72
2020/12/04 09:27:31;;;;;;;36.20;17.05;;;2.00;99.90;;;;;;5040238;28;20068;-72
2020/12/04 09:29:56;;;;;;;36.38;17.65;;;2.00;99.90;;;;;;5039160;28;20174;-72
2020/12/04 09:32:22;;;;;;;33.15;16.85;;;2.00;99.90;;;;;;5029709;28;20033;-72
2020/12/04 09:34:49;;;;;;;34.00;16.67;;;1.90;99.90;;;;;;5037628;28;20920;-72
2020/12/04 09:37:26;;;;;;;32.08;16.40;;;1.90;99.90;;;;;;5037320;28;20076;-73
2020/12/04 09:39:56;;;;;;;37.35;17.90;;;2.00;99.90;;;;;;5021834;28;20041;-74
2020/12/04 09:42:24;;;;;;;34.55;16.77;;;2.00;99.90;;;;;;5039746;28;20025;-73
2020/12/04 09:44:51;;;;;;;35.97;18.10;;;1.90;99.90;;;;;;5032922;28;20021;-72
2020/12/04 09:47:17;;;;;;;36.55;17.48;;;2.00;99.90;;;;;;5026738;28;20075;-72
2020/12/04 09:49:44;;;;;;;32.92;16.65;;;2.00;99.90;;;;;;5037339;28;20039;-72
2020/12/04 09:52:11;;;;;;;31.40;16.25;;;2.10;99.90;;;;;;5032336;28;20316;-72
2020/12/04 09:54:38;;;;;;;33.63;16.83;;;2.20;99.90;;;;;;5033377;28;20048;-72
2020/12/04 09:57:06;;;;;;;35.40;17.55;;;2.20;99.90;;;;;;5021766;28;20091;-72
2020/12/04 09:59:32;;;;;;;32.78;16.25;;;2.30;99.90;;;;;;5034790;28;20055;-72
2020/12/04 10:01:58;;;;;;;31.00;15.88;;;2.40;99.90;;;;;;5024391;28;20576;-73
2020/12/04 10:04:24;;;;;;;30.98;15.05;;;2.40;99.90;;;;;;5040179;28;20511;-73
2020/12/04 10:06:51;;;;;;;32.88;16.55;;;2.50;99.90;;;;;;5032821;28;20120;-73
2020/12/04 10:09:17;;;;;;;29.02;15.18;;;2.50;99.90;;;;;;5031220;28;20527;-72
2020/12/04 10:11:43;;;;;;;29.95;15.40;;;2.60;99.90;;;;;;5032321;28;20029;-72
2020/12/04 10:14:10;;;;;;;33.55;15.82;;;2.60;99.90;;;;;;5031106;28;20053;-72
2020/12/04 10:16:36;;;;;;;38.67;17.55;;;2.70;99.90;;;;;;5033656;28;20025;-73
2020/12/04 10:19:02;;;;;;;66.97;26.60;;;2.70;99.90;;;;;;5022958;28;20806;-73
2020/12/04 10:21:33;;;;;;;88.05;30.35;;;2.80;99.90;;;;;;5040310;28;20134;-73
2020/12/04 10:23:59;;;;;;;71.93;29.48;;;2.80;99.90;;;;;;5032198;28;20037;-73
2020/12/04 10:26:24;;;;;;;37.78;18.50;;;2.80;99.90;;;;;;5033242;28;20065;-72
2020/12/04 10:28:51;;;;;;;32.53;16.17;;;2.90;99.90;;;;;;5031912;28;20044;-72
2020/12/04 10:31:17;;;;;;;33.17;17.88;;;2.90;99.90;;;;;;5040555;28;20124;-72
2020/12/04 10:33:42;;;;;;;49.47;25.83;;;2.90;99.90;;;;;;5024314;28;20094;-72
2020/12/04 10:36:08;;;;;;;63.20;30.05;;;3.00;99.90;;;;;;5018571;28;20064;-72
2020/12/04 10:38:34;;;;;;;39.75;19.60;;;3.00;99.90;;;;;;5020629;28;20631;-72
2020/12/04 10:41:00;;;;;;;52.90;25.67;;;3.10;99.90;;;;;;5034285;28;20499;-72
2020/12/04 10:43:26;;;;;;;50.72;25.77;;;3.20;99.90;;;;;;5024426;28;20045;-72
2020/12/04 10:45:52;;;;;;;40.25;20.83;;;3.30;99.90;;;;;;5038067;28;20037;-73
2020/12/04 10:48:18;;;;;;;32.03;16.05;;;3.30;99.90;;;;;;5040178;28;20032;-73
2020/12/04 10:50:45;;;;;;;31.73;17.00;;;3.30;99.90;;;;;;5039435;28;20374;-73
2020/12/04 10:53:11;;;;;;;28.65;15.93;;;3.40;99.90;;;;;;5035931;28;20581;-72
2020/12/04 10:55:37;;;;;;;35.13;15.65;;;3.40;99.90;;;;;;5027745;28;20044;-73
2020/12/04 10:58:06;;;;;;;31.60;16.08;;;3.30;99.90;;;;;;5031154;28;20813;-73
2020/12/04 11:00:32;;;;;;;33.58;18.02;;;3.30;99.90;;;;;;5023480;28;20048;-73
2020/12/04 11:03:07;;;;;;;32.55;17.15;;;3.40;99.90;;;;;;5019503;28;20776;-72
2020/12/04 11:05:39;;;;;;;;;;;3.50;99.90;;;;;;5037069;28;20663;-72
2020/12/04 11:08:12;;;;;;;31.30;14.75;;;3.50;99.90;;;;;;5037905;28;19920;-72
2020/12/04 11:10:39;;;;;;;32.38;16.85;;;3.50;99.90;;;;;;5029256;28;20033;-72
2020/12/04 11:13:05;;;;;;;34.13;16.40;;;3.60;99.90;;;;;;5035039;28;20116;-72
2020/12/04 11:15:31;;;;;;;34.60;18.40;;;3.60;99.90;;;;;;5032873;28;20040;-72
2020/12/04 11:17:57;;;;;;;30.95;16.13;;;3.70;99.90;;;;;;5029278;28;20075;-72
2020/12/04 11:20:23;;;;;;;29.42;14.82;;;3.80;99.90;;;;;;5019314;28;20039;-72
2020/12/04 11:22:50;;;;;;;29.90;15.10;;;3.80;99.90;;;;;;5025844;28;20115;-73
2020/12/04 11:25:16;;;;;;;39.30;17.20;;;3.90;99.90;;;;;;5038121;28;20037;-72
2020/12/04 11:27:46;;;;;;;28.20;14.68;;;3.90;99.90;;;;;;5039487;28;20148;-72
2020/12/04 11:30:19;;;;;;;24.25;13.48;;;3.90;99.90;;;;;;5014857;28;20664;-72
2020/12/04 11:32:47;;;;;;;30.83;14.48;;;4.00;99.90;;;;;;5023540;28;20126;-72
2020/12/04 11:35:14;;;;;;;28.40;15.38;;;4.10;99.90;;;;;;5025393;28;20144;-72
2020/12/04 11:37:43;;;;;;;29.45;15.20;;;4.20;99.90;;;;;;5017423;28;20037;-72
2020/12/04 11:40:10;;;;;;;24.65;13.13;;;4.20;99.90;;;;;;5033819;28;20749;-73
2020/12/04 11:42:41;;;;;;;27.75;15.13;;;4.40;99.90;;;;;;5018761;28;20767;-73
2020/12/04 11:45:08;;;;;;;26.75;13.90;;;4.50;99.90;;;;;;5037599;28;20035;-74
2020/12/04 11:47:37;;;;;;;27.80;13.80;;;4.60;99.90;;;;;;5038190;28;20504;-71
2020/12/04 11:50:08;;;;;;;24.73;13.25;;;4.40;99.90;;;;;;5021168;28;20045;-72
2020/12/04 11:52:34;;;;;;;32.80;15.68;;;4.20;99.90;;;;;;5030348;28;20047;-72
2020/12/04 11:55:00;;;;;;;30.45;15.32;;;4.10;99.90;;;;;;5037250;28;20040;-72
2020/12/04 11:57:26;;;;;;;30.10;16.63;;;4.10;99.90;;;;;;5024506;28;20114;-73
2020/12/04 11:59:51;;;;;;;36.35;18.55;;;4.30;99.90;;;;;;5030977;28;20035;-75
2020/12/04 12:02:18;;;;;;;26.33;13.80;;;4.30;99.90;;;;;;5024318;28;20040;-76
2020/12/04 12:04:43;;;;;;;22.85;13.05;;;4.30;99.90;;;;;;5030957;28;20489;-72
2020/12/04 12:07:09;;;;;;;25.52;13.43;;;4.20;99.90;;;;;;5029761;28;20109;-72
2020/12/04 12:09:35;;;;;;;27.13;13.38;;;4.20;99.90;;;;;;5039267;28;20029;-67
2020/12/04 12:12:01;;;;;;;27.10;14.13;;;4.20;99.90;;;;;;5038323;28;20098;-72
2020/12/04 12:14:26;;;;;;;24.80;12.88;;;4.10;99.90;;;;;;5039479;28;20033;-73
2020/12/04 12:16:52;;;;;;;29.50;15.10;;;4.00;99.90;;;;;;5030610;28;20037;-75
2020/12/04 12:19:18;;;;;;;36.97;16.75;;;4.10;99.90;;;;;;5030266;28;20471;-74
2020/12/04 12:21:47;;;;;;;49.60;23.48;;;4.00;99.90;;;;;;5039196;28;20024;-75
2020/12/04 12:24:13;;;;;;;29.00;15.75;;;4.00;99.90;;;;;;5030636;28;20067;-75
2020/12/04 12:26:39;;;;;;;61.20;26.80;;;4.10;99.90;;;;;;5029212;28;20286;-74
2020/12/04 12:29:05;;;;;;;37.28;16.88;;;4.10;99.90;;;;;;5030009;28;20044;-75
2020/12/04 12:31:31;;;;;;;36.13;17.23;;;4.00;99.90;;;;;;5024794;28;20417;-75
2020/12/04 12:33:57;;;;;;;35.65;16.95;;;4.00;99.90;;;;;;5028478;28;20034;-75